Portada
METAR-TAF:

METAR-TAF

Aeropuertos :

Aeropuerto Internacional de Polokwane

Polokwane, Sudáfrica

latitud: 23-50-43S, longitud: 29-27-31E, altitud: 1242 m

Observación

El informe se hizo hace 45 minutos, a las 21:00 UTC
Viento 6 kt del sur-suroeste
Temperatura 14°C
Humedad 38%
Presión 1018 hPa

METAR: FAPP 262100Z AUTO 20006KT //// // ////// 14/M00 Q1018

Hora: 23:45 (21:45 UTC)

Pronóstico

El informe se hizo hace 12 horas y 45 minutos, a las 09:00 UTC
Pronóstico válido del 26 a las 10 UTC al 26 a las 18 UTC
Viento 15 kt del oeste-noroeste
Visibilidad 10 km o más
sin nubes por debajo de 1500 m y sin presencia de cumulonimbus.

TAF: FAPP 260900Z 2610/2618 29015KT CAVOK TX24/2612Z TN16/2618Z

Observaciones y pronósticos meteorológicos de más de 4000 aeropuertos (mensajes METAR y TAF).

Los puntos amarillos y rojos representan las estaciones disponibles.

Ponga el ratón en el punto deseado para ver el nombre de la estación.

Haga clic para ver las observaciones y los pronósticos meteorológicos.

Para cambiar el mapa : haga clic en los botones verdes con una cruz de color negro para hacer un zoom, en el botón verde con un guión para alejar o en las flechas verdes para mapas adyacentes.


METAR-TAF: